Time;durP1;ratioP1;P1;durP2;ratioP2;P2;SDS_P1;SDS_P2;PMS_P1;PMS_P2;Temp;Humidity;BMP_temperature;BMP_pressure;BME280_temperature;BME280_humidity;BME280_pressure;Samples;Min_cycle;Max_cycle;Signal;HPM_P1;HPM_P2
2023/06/13 00:00:10;;;;;;;7.80;4.40;;;;;;;20.47;38.92;101363.47;4841262;29;20094;-77
2023/06/13 00:02:37;;;;;;;7.68;4.38;;;;;;;20.24;39.08;101348.09;4841338;29;20479;-76
2023/06/13 00:05:05;;;;;;;8.20;4.18;;;;;;;20.24;39.10;101349.91;4841228;29;20117;-76
2023/06/13 00:07:32;;;;;;;8.18;4.20;;;;;;;20.24;39.57;101360.38;4841429;29;20031;-76
2023/06/13 00:09:58;;;;;;;7.00;4.13;;;;;;;20.15;39.28;101348.16;4841135;29;20026;-76
2023/06/13 00:12:25;;;;;;;7.00;4.30;;;;;;;20.05;40.14;101346.41;4842483;29;20112;-77
2023/06/13 00:14:51;;;;;;;7.32;4.15;;;;;;;20.06;40.25;101365.59;4844558;29;20102;-76
2023/06/13 00:17:17;;;;;;;7.15;4.13;;;;;;;20.02;40.30;101366.84;4844645;29;20498;-76
2023/06/13 00:19:44;;;;;;;8.18;4.43;;;;;;;19.96;40.20;101356.94;4844600;29;20478;-77
2023/06/13 00:22:11;;;;;;;6.00;4.47;;;;;;;19.89;40.14;101361.13;4844705;29;20033;-77
2023/06/13 00:24:37;;;;;;;8.35;4.30;;;;;;;19.77;40.41;101340.34;4844462;29;20026;-77
2023/06/13 00:27:02;;;;;;;7.13;4.10;;;;;;;19.87;40.79;101363.88;4842552;29;20102;-77
2023/06/13 00:29:27;;;;;;;8.43;4.85;;;;;;;19.75;40.83;101344.88;4844452;29;20026;-77
2023/06/13 00:31:53;;;;;;;7.53;4.20;;;;;;;19.82;40.85;101355.63;4844496;29;20034;-76
2023/06/13 00:34:18;;;;;;;12.30;4.60;;;;;;;19.64;40.77;101337.19;4844288;29;20037;-76
2023/06/13 00:36:44;;;;;;;5.85;4.25;;;;;;;19.72;40.73;101354.81;4844257;29;20060;-77
2023/06/13 00:39:10;;;;;;;5.78;4.32;;;;;;;19.62;41.38;101344.38;4844197;29;20109;-76
2023/06/13 00:41:35;;;;;;;9.10;4.70;;;;;;;19.64;41.08;101347.66;4844096;29;20109;-77
2023/06/13 00:44:01;;;;;;;7.47;4.60;;;;;;;19.66;41.04;101358.81;4844165;29;20500;-76
2023/06/13 00:46:34;;;;;;;7.88;4.68;;;;;;;19.63;41.18;101355.69;4844150;29;20049;-77
2023/06/13 00:49:00;;;;;;;12.27;4.60;;;;;;;19.53;41.85;101349.59;4844183;29;20029;-76
2023/06/13 00:51:27;;;;;;;9.70;5.32;;;;;;;19.35;41.59;101334.63;4844019;29;20038;-77
2023/06/13 00:53:54;;;;;;;6.97;4.32;;;;;;;19.42;42.56;101355.84;4844055;29;20030;-76
2023/06/13 00:56:19;;;;;;;6.13;4.10;;;;;;;19.40;42.26;101353.38;4843863;29;20037;-77
2023/06/13 00:58:45;;;;;;;7.30;4.43;;;;;;;19.23;42.18;101338.38;4843775;29;20033;-77
2023/06/13 01:01:12;;;;;;;7.22;4.38;;;;;;;19.27;42.08;101344.13;4843801;29;20050;-76
2023/06/13 01:03:39;;;;;;;7.57;4.63;;;;;;;19.11;42.36;101337.69;4844080;29;20041;-76
2023/06/13 01:06:04;;;;;;;7.25;4.30;;;;;;;19.16;42.34;101345.94;4827297;29;20191;-77
2023/06/13 01:08:30;;;;;;;11.82;5.00;;;;;;;19.19;42.43;101350.91;4843819;29;20525;-77
2023/06/13 01:11:15;;;;;;;9.68;4.82;;;;;;;19.19;42.39;101342.25;4842157;29;20119;-77
2023/06/13 01:14:01;;;;;;;11.57;4.53;;;;;;;19.14;42.82;101333.97;4843522;29;20482;-77
2023/06/13 01:16:38;;;;;;;7.53;4.70;;;;;;;19.01;42.90;101322.97;4843479;29;20372;-77
2023/06/13 01:19:11;;;;;;;7.57;4.78;;;;;;;19.03;42.84;101339.34;4843629;29;20399;-76
2023/06/13 01:21:37;;;;;;;6.95;4.57;;;;;;;19.01;43.08;101336.88;4843399;29;20034;-76
2023/06/13 01:24:19;;;;;;;8.88;4.78;;;;;;;19.03;43.07;101340.19;4843137;29;20026;-76
2023/06/13 01:26:47;;;;;;;;;;;;;;;19.00;43.13;101337.03;4843724;29;20034;-77
2023/06/13 01:29:15;;;;;;;9.05;4.90;;;;;;;18.88;43.47;101334.56;4843530;29;19916;-77
2023/06/13 01:31:43;;;;;;;10.57;5.07;;;;;;;18.80;43.58;101323.94;4843480;29;20505;-76
2023/06/13 01:34:10;;;;;;;8.73;4.68;;;;;;;18.86;44.22;101341.69;4843254;29;20069;-76
2023/06/13 01:36:36;;;;;;;8.02;5.10;;;;;;;18.84;43.80;101348.03;4843472;29;20356;-76
2023/06/13 01:39:02;;;;;;;8.23;4.70;;;;;;;18.87;43.70;101343.34;4843317;29;20041;-76
2023/06/13 01:41:27;;;;;;;7.82;5.20;;;;;;;18.66;44.23;101323.50;4843041;29;20037;-77
2023/06/13 01:43:52;;;;;;;8.52;5.05;;;;;;;18.63;44.01;101325.41;4842768;29;20041;-76
2023/06/13 01:46:31;;;;;;;9.68;4.88;;;;;;;18.72;44.05;101344.72;4842868;29;20059;-76
2023/06/13 01:49:10;;;;;;;9.63;5.05;;;;;;;18.69;44.11;101341.56;4842964;29;20065;-77
2023/06/13 01:51:48;;;;;;;8.43;4.93;;;;;;;18.63;44.19;101345.50;4842962;29;20034;-76
2023/06/13 01:54:20;;;;;;;9.80;5.13;;;;;;;18.44;44.80;101319.34;4842966;29;20379;-77
2023/06/13 01:56:50;;;;;;;9.55;4.95;;;;;;;18.53;45.08;101342.88;4842985;29;20106;-77
2023/06/13 01:59:19;;;;;;;11.05;6.15;;;;;;;18.34;45.41;101317.53;4842623;29;20109;-77
2023/06/13 02:01:47;;;;;;;9.98;5.40;;;;;;;18.41;45.78;101335.31;4842417;29;20050;-76
2023/06/13 02:04:13;;;;;;;9.25;5.53;;;;;;;18.35;45.89;101334.88;4842500;29;20070;-74
2023/06/13 02:06:38;;;;;;;7.55;4.85;;;;;;;18.30;45.54;101338.84;4843048;29;20072;-77
2023/06/13 02:09:04;;;;;;;9.60;5.28;;;;;;;18.10;46.41;101329.31;4840897;29;20038;-77
2023/06/13 02:11:30;;;;;;;9.52;5.28;;;;;;;18.06;46.53;101332.16;4842754;29;20034;-77
2023/06/13 02:13:55;;;;;;;11.43;5.47;;;;;;;18.03;47.25;101329.84;4842488;29;20037;-76
2023/06/13 02:16:25;;;;;;;9.48;5.53;;;;;;;17.96;47.17;101339.16;4842399;29;20399;-76
2023/06/13 02:18:50;;;;;;;9.05;5.45;;;;;;;17.87;48.14;101341.72;4842492;29;20030;-76
2023/06/13 02:21:16;;;;;;;8.77;5.25;;;;;;;17.81;47.88;101335.25;4842607;29;20029;-76
2023/06/13 02:23:41;;;;;;;11.02;5.32;;;;;;;17.74;48.53;101332.31;4842538;29;20420;-76
2023/06/13 02:26:07;;;;;;;8.88;5.25;;;;;;;17.55;48.10;101318.31;4842220;29;20041;-76
2023/06/13 02:28:33;;;;;;;9.82;5.75;;;;;;;17.66;48.02;101339.94;4842122;29;20483;-77
2023/06/13 02:30:58;;;;;;;8.13;5.20;;;;;;;17.60;48.44;101339.63;4842068;29;20022;-76
2023/06/13 02:33:24;;;;;;;7.93;4.82;;;;;;;17.50;48.81;101334.34;4842041;29;20083;-76
2023/06/13 02:35:50;;;;;;;11.00;5.50;;;;;;;17.37;48.61;101313.69;4841703;29;20034;-76
2023/06/13 02:38:16;;;;;;;13.15;5.47;;;;;;;17.34;48.97;101315.72;4842191;29;20030;-76
2023/06/13 02:40:41;;;;;;;9.57;5.32;;;;;;;17.28;49.71;101318.84;4842371;29;20040;-77
2023/06/13 02:43:06;;;;;;;10.30;5.72;;;;;;;17.29;49.57;101325.72;4842028;29;20263;-76
2023/06/13 02:45:32;;;;;;;10.60;5.45;;;;;;;17.19;49.84;101326.47;4841946;29;20045;-76
2023/06/13 02:47:58;;;;;;;7.30;5.20;;;;;;;17.20;49.73;101332.53;4842044;29;20029;-76
2023/06/13 02:50:23;;;;;;;9.40;6.05;;;;;;;17.07;50.95;101324.88;4825747;29;20040;-77
2023/06/13 02:52:49;;;;;;;9.93;5.25;;;;;;;17.06;51.25;101330.22;4842030;29;20025;-77
2023/06/13 02:55:14;;;;;;;8.13;5.45;;;;;;;17.16;50.23;101346.78;4840169;29;20045;-76
2023/06/13 02:57:40;;;;;;;9.73;5.50;;;;;;;17.03;50.50;101328.72;4842053;29;20033;-76
2023/06/13 03:00:11;;;;;;;8.80;5.47;;;;;;;17.05;50.89;101349.47;4841417;29;20036;-76
2023/06/13 03:02:37;;;;;;;9.48;5.35;;;;;;;17.08;51.11;101349.19;4841818;29;20038;-77
2023/06/13 03:05:15;;;;;;;9.40;5.75;;;;;;;17.04;50.90;101353.03;4841712;29;20034;-76
2023/06/13 03:07:46;;;;;;;13.18;5.95;;;;;;;16.99;50.91;101348.16;4842113;29;20030;-78
2023/06/13 03:10:12;;;;;;;9.52;6.43;;;;;;;17.00;50.91;101347.22;4841992;29;20062;-78
2023/06/13 03:12:37;;;;;;;12.13;5.72;;;;;;;16.98;51.53;101345.69;4841686;29;20053;-78
2023/06/13 03:15:03;;;;;;;12.18;5.85;;;;;;;16.88;52.66;101350.81;4841600;29;20054;-79
2023/06/13 03:17:29;;;;;;;12.25;6.00;;;;;;;16.80;52.32;101345.41;4840333;29;20026;-78
2023/06/13 03:19:55;;;;;;;11.35;5.72;;;;;;;16.78;52.76;101347.31;4841785;29;20022;-78
2023/06/13 03:22:20;;;;;;;13.38;6.07;;;;;;;16.51;52.85;101319.84;4841757;29;20022;-78
2023/06/13 03:24:46;;;;;;;13.07;5.63;;;;;;;16.47;53.18;101315.00;4841555;29;20327;-79
2023/06/13 03:27:12;;;;;;;10.68;6.03;;;;;;;16.56;52.84;101329.94;4841710;29;20038;-79
2023/06/13 03:29:41;;;;;;;13.48;6.45;;;;;;;16.63;52.61;101344.97;4841763;29;20551;-80
2023/06/13 03:32:08;;;;;;;11.23;5.97;;;;;;;16.60;53.46;101347.78;4841743;29;20441;-80
2023/06/13 03:34:37;;;;;;;11.35;6.20;;;;;;;16.64;52.88;101345.78;4841986;29;20046;-77
2023/06/13 03:37:07;;;;;;;9.80;5.70;;;;;;;16.39;54.16;101318.22;4841888;29;20030;-77
2023/06/13 03:39:33;;;;;;;12.38;6.03;;;;;;;16.57;53.58;101342.00;4841922;29;20108;-77
2023/06/13 03:41:59;;;;;;;13.90;6.25;;;;;;;16.39;54.47;101315.63;4841579;29;20058;-76
2023/06/13 03:44:25;;;;;;;12.98;6.00;;;;;;;16.53;53.58;101331.00;4841409;29;20105;-77
2023/06/13 03:46:51;;;;;;;11.20;5.90;;;;;;;16.29;54.95;101307.69;4843588;29;20137;-77
2023/06/13 03:49:18;;;;;;;12.65;6.55;;;;;;;16.37;54.85;101314.09;4845412;29;20026;-80
2023/06/13 03:51:43;;;;;;;9.88;5.80;;;;;;;16.51;54.50;101335.50;4845581;29;20096;-76
2023/06/13 03:54:09;;;;;;;9.88;6.30;;;;;;;16.22;55.34;101293.53;4845298;29;20184;-77
2023/06/13 03:56:35;;;;;;;8.00;5.38;;;;;;;16.25;55.07;101314.13;4844983;29;20026;-77
2023/06/13 03:59:01;;;;;;;12.27;6.00;;;;;;;16.47;54.31;101334.09;4844964;29;20034;-77
2023/06/13 04:01:28;;;;;;;9.25;6.32;;;;;;;16.29;54.77;101309.47;4844807;29;20045;-80
2023/06/13 04:03:53;;;;;;;8.35;5.28;;;;;;;16.44;56.59;101341.34;4845021;29;20040;-76
2023/06/13 04:06:19;;;;;;;11.68;6.35;;;;;;;16.38;54.60;101324.41;4845031;29;20034;-80
2023/06/13 04:08:44;;;;;;;10.57;7.00;;;;;;;16.49;55.13;101340.00;4844979;29;20041;-78
2023/06/13 04:11:09;;;;;;;10.00;6.40;;;;;;;16.50;55.76;101346.03;4845014;29;20037;-78
2023/06/13 04:13:35;;;;;;;9.00;6.07;;;;;;;16.43;55.82;101330.09;4844868;29;20037;-80
2023/06/13 04:16:03;;;;;;;8.75;6.32;;;;;;;16.59;55.12;101350.53;4844597;29;20110;-80
2023/06/13 04:18:29;;;;;;;9.95;6.20;;;;;;;16.69;54.78;101342.81;4844760;29;20159;-78
2023/06/13 04:20:55;;;;;;;10.05;6.45;;;;;;;16.79;55.44;101343.75;4844684;29;20034;-78
2023/06/13 04:23:21;;;;;;;9.40;6.43;;;;;;;16.87;56.19;101352.59;4844624;29;20359;-77
2023/06/13 04:25:47;;;;;;;10.88;7.22;;;;;;;16.98;54.61;101351.72;4844630;29;20040;-80
2023/06/13 04:28:13;;;;;;;12.65;6.50;;;;;;;17.11;54.72;101357.63;4903590;24;20149;-79
2023/06/13 04:30:46;;;;;;;9.80;6.97;;;;;;;17.31;55.07;101355.16;4862838;29;20025;-77
2023/06/13 04:33:16;;;;;;;10.85;6.72;;;;;;;17.33;53.76;101342.78;4863011;29;20034;-77
2023/06/13 04:35:44;;;;;;;11.15;6.78;;;;;;;17.57;53.53;101350.34;4862881;29;20072;-76
2023/06/13 04:38:13;;;;;;;11.50;7.20;;;;;;;17.68;52.93;101352.88;4862836;29;20053;-77
2023/06/13 04:40:39;;;;;;;10.40;6.65;;;;;;;17.65;52.62;101329.63;4862749;29;20029;-77
2023/06/13 04:43:04;;;;;;;11.38;6.70;;;;;;;17.76;52.66;101361.75;4862962;29;20045;-77
2023/06/13 04:45:30;;;;;;;9.90;6.28;;;;;;;17.77;54.15;101358.19;4862496;29;20072;-76
2023/06/13 04:47:57;;;;;;;13.07;6.88;;;;;;;17.62;53.14;101354.25;4862499;29;20469;-77
2023/06/13 04:50:24;;;;;;;9.88;7.22;;;;;;;17.51;53.98;101345.66;4862798;29;20461;-77
2023/06/13 04:52:53;;;;;;;11.68;6.60;;;;;;;17.66;54.06;101360.03;4862552;29;20057;-76
2023/06/13 04:55:21;;;;;;;10.05;7.10;;;;;;;17.67;53.19;101367.72;4862719;29;20037;-76
2023/06/13 04:57:46;;;;;;;9.13;6.28;;;;;;;17.55;52.98;101358.31;4861850;29;20029;-76
2023/06/13 05:00:12;;;;;;;10.48;6.50;;;;;;;17.53;54.45;101356.78;4862515;29;20055;-76
2023/06/13 05:02:41;;;;;;;9.00;6.45;;;;;;;17.93;54.02;101372.56;4862360;29;20029;-77
2023/06/13 05:05:07;;;;;;;10.63;6.70;;;;;;;18.22;53.50;101370.88;4862242;29;20078;-77
2023/06/13 05:07:34;;;;;;;10.52;6.60;;;;;;;18.35;52.32;101352.34;4862299;29;20034;-77
2023/06/13 05:10:01;;;;;;;13.20;7.65;;;;;;;18.59;51.27;101350.19;4862366;29;20032;-77
2023/06/13 05:12:26;;;;;;;9.55;6.60;;;;;;;18.71;51.10;101350.09;4862327;29;20034;-76
2023/06/13 05:14:52;;;;;;;11.77;6.93;;;;;;;18.96;50.79;101361.81;4862171;29;20037;-76
2023/06/13 05:17:17;;;;;;;9.70;7.30;;;;;;;19.24;50.23;101358.34;4862110;29;20104;-77
2023/06/13 05:19:43;;;;;;;12.10;7.45;;;;;;;19.60;48.39;101353.34;4859698;29;20169;-71
2023/06/13 05:22:08;;;;;;;11.43;6.32;;;;;;;20.12;47.52;101372.88;4880957;29;20462;-77
2023/06/13 05:24:34;;;;;;;10.30;6.72;;;;;;;20.49;46.72;101351.03;4880644;29;20060;-77
2023/06/13 05:26:59;;;;;;;10.38;6.95;;;;;;;21.25;45.29;101369.78;4880701;29;20029;-75
2023/06/13 05:29:26;;;;;;;9.15;6.80;;;;;;;21.95;43.63;101373.19;4878695;29;20565;-75
2023/06/13 05:31:53;;;;;;;10.52;6.45;;;;;;;22.81;42.30;101372.97;4864036;29;20033;-74
2023/06/13 05:34:18;;;;;;;8.45;6.20;;;;;;;23.51;40.52;101354.03;4880292;29;20467;-77
2023/06/13 05:36:45;;;;;;;10.00;6.50;;;;;;;24.50;38.21;101365.88;4880483;29;20029;-76
2023/06/13 05:39:12;;;;;;;11.00;7.00;;;;;;;25.16;35.95;101380.25;4880299;29;20465;-75
2023/06/13 05:41:39;;;;;;;8.45;6.13;;;;;;;25.50;35.55;101358.63;4880241;29;20461;-75
2023/06/13 05:44:05;;;;;;;9.65;6.18;;;;;;;25.78;34.32;101368.59;4880226;29;20496;-76
2023/06/13 05:46:30;;;;;;;9.38;6.55;;;;;;;25.60;34.74;101369.75;4879917;29;20037;-76
2023/06/13 05:48:55;;;;;;;11.40;6.53;;;;;;;26.22;35.14;101379.13;4880100;29;20029;-75
2023/06/13 05:51:20;;;;;;;11.48;6.10;;;;;;;27.23;32.37;101370.16;4880259;29;20028;-73
2023/06/13 05:54:06;;;;;;;9.20;6.05;;;;;;;27.61;31.90;101353.88;4879925;29;20377;-76
2023/06/13 05:56:33;;;;;;;9.30;6.57;;;;;;;27.94;30.63;101340.81;4878194;29;20467;-76
2023/06/13 05:58:58;;;;;;;10.18;6.80;;;;;;;28.46;30.21;101369.41;4879908;29;20021;-76
2023/06/13 06:01:24;;;;;;;9.07;6.28;;;;;;;29.01;30.20;101375.44;4879431;29;20442;-75
2023/06/13 06:03:49;;;;;;;9.55;5.97;;;;;;;29.22;29.73;101374.41;4880122;29;20029;-78
2023/06/13 06:06:15;;;;;;;9.60;5.53;;;;;;;29.65;29.18;101371.25;4879832;29;20390;-75
2023/06/13 06:08:40;;;;;;;12.32;6.65;;;;;;;30.09;27.98;101375.00;4879602;29;20036;-77
2023/06/13 06:11:05;;;;;;;8.73;5.70;;;;;;;30.25;27.91;101386.00;4879062;29;20064;-77
2023/06/13 06:13:31;;;;;;;14.57;6.18;;;;;;;30.30;27.99;101382.72;4879752;29;20404;-77
2023/06/13 06:15:56;;;;;;;10.55;5.90;;;;;;;29.96;27.29;101371.34;4879337;29;20032;-76
2023/06/13 06:18:22;;;;;;;11.40;6.10;;;;;;;30.53;26.74;101380.31;4879764;29;20078;-77
2023/06/13 06:20:47;;;;;;;8.38;6.18;;;;;;;30.63;27.08;101376.34;4879566;29;20040;-78
2023/06/13 06:23:14;;;;;;;13.15;6.05;;;;;;;30.98;26.76;101371.41;4879840;29;20025;-77
2023/06/13 06:25:40;;;;;;;9.18;5.93;;;;;;;31.41;25.52;101366.09;4879456;29;20033;-76
2023/06/13 06:28:05;;;;;;;9.43;5.80;;;;;;;31.04;26.00;101362.50;4879013;29;20052;-75
2023/06/13 06:30:30;;;;;;;10.40;5.95;;;;;;;31.00;26.60;101367.47;4879043;29;20052;-76
2023/06/13 06:32:56;;;;;;;10.27;6.05;;;;;;;30.75;25.65;101353.31;4879263;29;20035;-74
2023/06/13 06:35:21;;;;;;;9.45;6.10;;;;;;;30.60;26.39;101353.63;4879406;29;20025;-76
2023/06/13 06:37:47;;;;;;;9.15;6.15;;;;;;;30.40;26.29;101368.94;4879257;29;20029;-79
2023/06/13 06:40:12;;;;;;;9.70;5.32;;;;;;;30.63;26.98;101353.19;4879357;29;20036;-75
2023/06/13 06:42:38;;;;;;;9.15;5.30;;;;;;;30.64;26.32;101343.31;4879278;29;20025;-75
2023/06/13 06:45:04;;;;;;;10.40;6.05;;;;;;;31.11;25.79;101369.44;4879071;29;20108;-75
2023/06/13 06:47:29;;;;;;;9.60;5.93;;;;;;;31.22;25.64;101361.78;4878936;29;20033;-76
2023/06/13 06:49:55;;;;;;;11.10;6.20;;;;;;;31.09;25.28;101347.50;4879066;29;20036;-75
2023/06/13 06:52:20;;;;;;;9.40;5.80;;;;;;;30.86;25.80;101368.59;4879069;29;20112;-76
2023/06/13 06:54:46;;;;;;;8.55;6.00;;;;;;;30.71;25.31;101365.47;4879229;29;20032;-76
2023/06/13 06:57:11;;;;;;;9.13;6.63;;;;;;;30.40;26.02;101372.41;4878919;29;20473;-78
2023/06/13 06:59:37;;;;;;;8.90;5.55;;;;;;;30.27;27.29;101357.28;4877735;29;20045;-77
2023/06/13 07:02:03;;;;;;;10.77;5.88;;;;;;;30.96;26.08;101344.94;4878717;29;20021;-78
2023/06/13 07:04:28;;;;;;;8.35;5.13;;;;;;;31.43;25.10;101353.34;4878593;29;20029;-79
2023/06/13 07:06:54;;;;;;;7.03;5.28;;;;;;;31.06;25.64;101373.78;4879412;29;20492;-80
2023/06/13 07:09:22;;;;;;;9.13;5.72;;;;;;;30.62;25.85;101374.72;4879031;29;20104;-79
2023/06/13 07:11:48;;;;;;;9.95;5.55;;;;;;;30.61;26.42;101357.91;4878864;29;20033;-78
2023/06/13 07:14:13;;;;;;;9.63;5.68;;;;;;;31.53;25.15;101371.50;4878853;29;20068;-78
2023/06/13 07:16:38;;;;;;;7.93;5.28;;;;;;;31.87;23.79;101352.25;4878628;29;20081;-78
2023/06/13 07:19:04;;;;;;;9.52;5.65;;;;;;;31.74;25.21;101367.56;4878695;29;20044;-78
2023/06/13 07:21:29;;;;;;;7.85;5.43;;;;;;;31.63;24.73;101361.94;4880431;29;20048;-77
2023/06/13 07:23:54;;;;;;;9.05;5.75;;;;;;;31.89;24.30;101378.72;4882622;29;20381;-78
2023/06/13 07:26:21;;;;;;;9.68;5.10;;;;;;;32.33;24.56;101379.41;4882553;29;20105;-78
2023/06/13 07:28:46;;;;;;;10.70;5.35;;;;;;;32.59;23.95;101383.56;4882612;29;20120;-78
2023/06/13 07:31:12;;;;;;;10.05;5.50;;;;;;;32.43;23.46;101375.16;4882684;29;20405;-78
2023/06/13 07:33:37;;;;;;;9.30;5.47;;;;;;;32.69;23.65;101375.78;4882187;29;20035;-78
2023/06/13 07:36:03;;;;;;;10.00;5.57;;;;;;;32.96;23.61;101376.22;4882626;29;20037;-78
2023/06/13 07:38:28;;;;;;;10.30;6.00;;;;;;;32.48;23.22;101388.66;4882577;29;20081;-79
2023/06/13 07:40:54;;;;;;;7.00;5.45;;;;;;;31.66;24.11;101376.69;4882455;29;20036;-79
2023/06/13 07:43:19;;;;;;;7.32;5.43;;;;;;;30.21;26.61;101384.81;4882346;29;20029;-78
2023/06/13 07:45:46;;;;;;;8.10;6.10;;;;;;;28.74;28.95;101387.84;4882236;29;20035;-77
2023/06/13 07:48:11;;;;;;;9.88;5.60;;;;;;;27.24;30.27;101366.53;4882106;29;20112;-79
2023/06/13 07:50:37;;;;;;;6.97;5.13;;;;;;;26.17;31.76;101363.81;4881951;29;20119;-78
2023/06/13 07:53:03;;;;;;;10.68;6.38;;;;;;;25.45;33.02;101360.97;4882239;29;20080;-78
2023/06/13 07:55:28;;;;;;;9.57;5.88;;;;;;;25.00;33.83;101383.00;4882145;29;20470;-79
2023/06/13 07:57:54;;;;;;;7.63;6.35;;;;;;;24.57;35.69;101366.78;4882157;29;20509;-78
2023/06/13 08:00:19;;;;;;;8.85;5.80;;;;;;;24.56;35.61;101376.53;4882201;29;20036;-78
2023/06/13 08:02:46;;;;;;;9.73;6.15;;;;;;;24.49;36.31;101374.78;4881874;29;20084;-78
2023/06/13 08:05:12;;;;;;;8.45;5.97;;;;;;;24.37;36.02;101370.88;4880146;29;20041;-78
2023/06/13 08:07:38;;;;;;;12.10;5.93;;;;;;;24.08;36.39;101366.19;4882062;29;20065;-78
2023/06/13 08:10:03;;;;;;;10.38;6.18;;;;;;;23.90;36.61;101361.19;4882066;29;20024;-78
2023/06/13 08:12:29;;;;;;;9.90;6.05;;;;;;;23.88;36.81;101379.81;4881918;29;20473;-78
2023/06/13 08:14:54;;;;;;;11.30;6.13;;;;;;;23.75;37.18;101371.59;4881853;29;20036;-78
2023/06/13 08:17:19;;;;;;;11.93;6.40;;;;;;;23.82;37.52;101382.31;4881692;29;20036;-79
2023/06/13 08:19:48;;;;;;;8.65;5.47;;;;;;;23.98;37.53;101375.16;4865053;29;20049;-79
2023/06/13 08:22:14;;;;;;;7.57;5.60;;;;;;;24.20;37.49;101370.94;4882065;29;20057;-76
2023/06/13 08:24:40;;;;;;;8.77;6.28;;;;;;;24.25;37.42;101373.88;4881738;29;20039;-79
2023/06/13 08:27:07;;;;;;;10.23;5.90;;;;;;;24.12;37.01;101378.91;4880264;29;20037;-79
2023/06/13 08:29:32;;;;;;;9.07;6.15;;;;;;;23.78;36.51;101351.97;4881517;29;20052;-79
2023/06/13 08:31:58;;;;;;;7.40;5.97;;;;;;;23.85;37.42;101381.97;4881244;29;20029;-80
2023/06/13 08:34:23;;;;;;;10.80;5.93;;;;;;;23.83;36.85;101370.78;4880633;29;20021;-79
2023/06/13 08:36:49;;;;;;;10.88;6.30;;;;;;;23.82;37.84;101367.31;4881099;29;20025;-79
2023/06/13 08:39:15;;;;;;;11.30;5.75;;;;;;;24.06;37.83;101371.66;4881325;29;20362;-79
2023/06/13 08:41:41;;;;;;;9.68;5.78;;;;;;;24.40;37.92;101375.84;4881381;29;20115;-79
2023/06/13 08:44:07;;;;;;;8.55;5.75;;;;;;;24.57;36.08;101372.91;4881217;29;20195;-80
2023/06/13 08:46:36;;;;;;;8.18;5.50;;;;;;;24.78;35.54;101371.47;4881101;29;20442;-80
2023/06/13 08:49:04;;;;;;;9.43;6.00;;;;;;;24.69;35.71;101369.88;4880774;29;20541;-82
2023/06/13 08:51:31;;;;;;;8.80;6.00;;;;;;;24.74;36.19;101370.16;4880735;29;20386;-82
2023/06/13 08:54:00;;;;;;;9.90;5.47;;;;;;;24.71;36.26;101355.50;4881360;29;20434;-79
2023/06/13 08:56:28;;;;;;;10.35;5.82;;;;;;;24.92;35.21;101348.72;4881159;29;20037;-76
2023/06/13 08:58:58;;;;;;;8.90;5.40;;;;;;;24.69;35.50;101359.31;4881126;29;20029;-77
2023/06/13 09:01:27;;;;;;;11.05;6.28;;;;;;;24.75;36.25;101355.94;4880873;29;20032;-79
2023/06/13 09:03:55;;;;;;;8.30;5.57;;;;;;;24.73;35.98;101331.53;4880722;29;20033;-79
2023/06/13 09:06:20;;;;;;;8.57;5.75;;;;;;;24.85;34.37;101357.34;4880593;29;20036;-79
2023/06/13 09:08:47;;;;;;;8.57;5.35;;;;;;;24.75;35.29;101326.88;4881083;29;20033;-79
2023/06/13 09:11:14;;;;;;;11.00;5.43;;;;;;;24.93;34.13;101358.28;4880854;29;20112;-80
2023/06/13 09:13:40;;;;;;;11.07;5.35;;;;;;;24.73;34.10;101326.25;4880860;29;20511;-81
2023/06/13 09:16:05;;;;;;;8.65;5.35;;;;;;;24.83;34.69;101354.06;4880856;29;20025;-79
2023/06/13 09:18:36;;;;;;;9.05;5.40;;;;;;;24.85;35.04;101352.06;4879130;29;20538;-79
2023/06/13 09:21:02;;;;;;;7.50;5.03;;;;;;;24.82;35.51;101348.97;4880570;29;20088;-77
2023/06/13 09:23:27;;;;;;;10.40;5.50;;;;;;;24.94;34.83;101349.34;4880808;29;20477;-78
2023/06/13 09:25:54;;;;;;;9.10;5.13;;;;;;;25.13;35.72;101343.63;4880605;29;20512;-75
2023/06/13 09:28:40;;;;;;;10.25;5.82;;;;;;;25.34;34.98;101356.94;4880410;29;20045;-78
2023/06/13 09:31:10;;;;;;;10.20;5.57;;;;;;;25.46;34.88;101338.81;4880493;29;20033;-77
2023/06/13 09:33:36;;;;;;;12.27;5.60;;;;;;;25.54;33.73;101333.44;4880120;29;20116;-77
2023/06/13 09:36:02;;;;;;;9.70;5.63;;;;;;;25.29;33.16;101335.53;4880228;29;20478;-79
2023/06/13 09:38:29;;;;;;;8.30;5.18;;;;;;;25.27;34.70;101352.56;4880300;29;20029;-77
2023/06/13 09:40:56;;;;;;;7.70;4.93;;;;;;;25.44;34.64;101348.75;4880243;29;20068;-78
2023/06/13 09:43:23;;;;;;;7.70;5.05;;;;;;;25.43;35.18;101321.50;4878587;29;20029;-77
2023/06/13 09:45:50;;;;;;;10.45;5.25;;;;;;;25.64;32.92;101335.81;4882041;23;20045;-78
2023/06/13 09:48:15;;;;;;;9.80;5.35;;;;;;;25.58;33.90;101340.03;4843249;29;20034;-76
2023/06/13 09:50:42;;;;;;;8.88;5.30;;;;;;;25.50;33.14;101326.88;4842979;29;20026;-75
2023/06/13 09:53:08;;;;;;;7.53;4.78;;;;;;;25.39;33.51;101314.94;4843204;29;20037;-79
2023/06/13 09:55:35;;;;;;;10.38;5.20;;;;;;;25.50;31.95;101323.41;4843007;29;20026;-79
2023/06/13 09:58:01;;;;;;;8.75;5.30;;;;;;;25.59;32.22;101327.63;4843111;29;20467;-78
2023/06/13 10:00:27;;;;;;;7.47;5.05;;;;;;;25.91;32.03;101344.94;4906158;24;20057;-77
2023/06/13 10:02:53;;;;;;;7.13;4.80;;;;;;;26.03;31.06;101340.81;4861271;29;20081;-76
2023/06/13 10:05:18;;;;;;;11.32;4.82;;;;;;;26.05;32.27;101341.44;4861417;29;20037;-79
2023/06/13 10:07:44;;;;;;;9.88;4.65;;;;;;;25.86;31.55;101310.28;4861363;29;20034;-79
2023/06/13 10:10:09;;;;;;;7.47;5.35;;;;;;;26.13;31.32;101319.34;4861569;29;20041;-79
2023/06/13 10:12:39;;;;;;;11.35;5.63;;;;;;;26.11;32.10;101335.41;4861366;29;20030;-77
2023/06/13 10:15:06;;;;;;;7.57;4.90;;;;;;;26.22;32.40;101329.63;4859946;29;20177;-83
2023/06/13 10:17:39;;;;;;;8.55;4.93;;;;;;;26.19;30.74;101339.78;4861118;29;20025;-80
2023/06/13 10:20:10;;;;;;;12.00;4.82;;;;;;;26.04;30.94;101316.00;4860987;29;20029;-81
2023/06/13 10:22:38;;;;;;;13.32;5.00;;;;;;;26.26;31.29;101327.47;4861221;29;20033;-81
2023/06/13 10:25:07;;;;;;;8.68;4.50;;;;;;;26.41;31.71;101330.06;4859939;29;20486;-80
2023/06/13 10:27:36;;;;;;;9.70;5.20;;;;;;;26.39;30.27;101311.72;4861089;29;20394;-79
2023/06/13 10:30:19;;;;;;;7.40;4.57;;;;;;;26.49;30.63;101314.06;4860902;29;20073;-76
2023/06/13 10:32:45;;;;;;;8.27;5.18;;;;;;;26.68;29.60;101316.06;4860971;29;20037;-79
2023/06/13 10:35:58;;;;;;;8.10;4.88;;;;;;;26.54;29.11;101322.25;4860596;29;20037;-79
2023/06/13 10:38:48;;;;;;;7.57;4.97;;;;;;;26.35;29.26;101328.97;4821963;29;20070;-77
2023/06/13 10:41:35;;;;;;;8.00;5.07;;;;;;;26.48;30.10;101328.31;4822220;29;20074;-74
2023/06/13 10:44:09;;;;;;;9.48;4.72;;;;;;;26.72;29.16;101329.75;4822055;29;20043;-77
2023/06/13 10:46:36;;;;;;;9.30;4.78;;;;;;;26.63;28.48;101296.44;4821988;29;20046;-79
2023/06/13 10:49:02;;;;;;;9.88;5.22;;;;;;;26.81;29.07;101315.38;4821840;29;20416;-77
2023/06/13 10:51:30;;;;;;;6.60;4.60;;;;;;;26.69;29.26;101295.69;4822036;29;20044;-78
2023/06/13 10:54:12;;;;;;;11.90;4.78;;;;;;;26.59;29.11;101303.97;4822110;29;20110;-78
2023/06/13 10:56:41;;;;;;;9.30;5.05;;;;;;;26.56;28.36;101330.84;4821432;29;20039;-77
2023/06/13 10:59:14;;;;;;;12.27;5.05;;;;;;;26.59;28.77;101298.66;4821934;29;20137;-77
2023/06/13 11:01:41;;;;;;;9.20;4.82;;;;;;;26.76;29.36;101305.34;4821946;29;20038;-77
2023/06/13 11:04:13;;;;;;;9.57;5.32;;;;;;;26.79;28.44;101314.75;4806314;29;20072;-78
2023/06/13 11:06:40;;;;;;;11.07;4.63;;;;;;;26.70;29.31;101311.41;4821759;29;20073;-77
2023/06/13 11:09:25;;;;;;;8.00;4.75;;;;;;;26.61;28.66;101311.72;4821881;29;20531;-76
2023/06/13 11:11:55;;;;;;;7.60;5.05;;;;;;;26.60;29.29;101305.59;4821781;29;20095;-77
2023/06/13 11:14:37;;;;;;;9.60;4.82;;;;;;;26.47;28.97;101292.25;4828368;29;20037;-78
2023/06/13 11:17:03;;;;;;;7.72;4.53;;;;;;;26.54;28.95;101301.88;4860414;29;20037;-78
2023/06/13 11:19:28;;;;;;;8.20;4.97;;;;;;;26.52;29.18;101298.59;4860213;29;20050;-80
2023/06/13 11:22:03;;;;;;;8.60;4.78;;;;;;;26.71;29.08;101312.22;4874911;29;20049;-79